Terminal Aerodrome Forecast
Issued by NWS Wilmington, OH

Current Version | Previous Version | Graphics & Text | Print | Product List | Glossary On
Versions: 1 2 3 4 5 6 7 8 9 10 11 12 13 14 15 16 17 18 19 20 21 22 23 24 25 26 27 28 29 30 31 32 33 34
000
FTUS41 KILN 270146 AAA
TAFCVG
TAF AMD
KCVG 270146Z 2702/2806 VRB03KT P6SM SCT025 BKN150
      TEMPO 2702/2703 -SHRA BKN025
     FM270600 00000KT 5SM BR SCT150
      TEMPO 2709/2712 2SM BR
     FM271300 VRB03KT P6SM BKN150
     FM271600 29004KT P6SM SCT035 BKN150
     FM280100 00000KT P6SM BKN120 BKN250=

USA.gov is the U.S. government's official web portal to all federal, state and local government web resources and services.